sensor_id;sensor_type;location;lat;lon;timestamp;pressure;altitude;pressure_sealevel;temperature;humidity
20889;BME280;10604;51.976;7.594;2023-04-03T00:00:22;102281.63;;;5.17;72.34
20889;BME280;10604;51.976;7.594;2023-04-03T00:02:48;102289.66;;;5.28;72.20
20889;BME280;10604;51.976;7.594;2023-04-03T00:05:13;102293.06;;;5.24;72.27
20889;BME280;10604;51.976;7.594;2023-04-03T00:07:38;102292.00;;;5.11;72.36
20889;BME280;10604;51.976;7.594;2023-04-03T00:10:04;102291.03;;;5.07;72.69
20889;BME280;10604;51.976;7.594;2023-04-03T00:12:30;102294.47;;;5.03;71.87
20889;BME280;10604;51.976;7.594;2023-04-03T00:14:55;102299.69;;;5.03;72.68
20889;BME280;10604;51.976;7.594;2023-04-03T00:17:21;102300.22;;;4.86;73.15
20889;BME280;10604;51.976;7.594;2023-04-03T00:19:46;102300.22;;;4.86;73.47
20889;BME280;10604;51.976;7.594;2023-04-03T00:22:11;102297.28;;;4.69;73.98
20889;BME280;10604;51.976;7.594;2023-04-03T00:24:37;102300.72;;;4.65;74.19
20889;BME280;10604;51.976;7.594;2023-04-03T00:27:02;102300.88;;;4.74;73.42
20889;BME280;10604;51.976;7.594;2023-04-03T00:29:27;102307.63;;;4.63;73.80
20889;BME280;10604;51.976;7.594;2023-04-03T00:31:53;102300.50;;;4.56;74.67
20889;BME280;10604;51.976;7.594;2023-04-03T00:34:18;102305.81;;;4.59;73.93
20889;BME280;10604;51.976;7.594;2023-04-03T00:36:44;102305.81;;;4.59;73.87
20889;BME280;10604;51.976;7.594;2023-04-03T00:39:10;102298.38;;;4.37;75.08
20889;BME280;10604;51.976;7.594;2023-04-03T00:41:35;102301.94;;;4.39;74.54
20889;BME280;10604;51.976;7.594;2023-04-03T00:44:21;102294.06;;;4.37;74.14
20889;BME280;10604;51.976;7.594;2023-04-03T00:46:46;102307.91;;;4.34;74.18
20889;BME280;10604;51.976;7.594;2023-04-03T00:49:12;102308.06;;;4.42;74.39
20889;BME280;10604;51.976;7.594;2023-04-03T00:51:40;102308.75;;;4.33;74.09
20889;BME280;10604;51.976;7.594;2023-04-03T00:54:07;102308.63;;;4.27;74.38
20889;BME280;10604;51.976;7.594;2023-04-03T00:56:33;102317.41;;;4.29;74.79
20889;BME280;10604;51.976;7.594;2023-04-03T00:59:05;102312.28;;;4.36;74.07
20889;BME280;10604;51.976;7.594;2023-04-03T01:01:31;102310.66;;;4.41;73.60
20889;BME280;10604;51.976;7.594;2023-04-03T01:03:58;102305.44;;;4.41;72.72
20889;BME280;10604;51.976;7.594;2023-04-03T01:06:28;102309.56;;;4.29;73.27
20889;BME280;10604;51.976;7.594;2023-04-03T01:08:56;102299.75;;;4.19;73.79
20889;BME280;10604;51.976;7.594;2023-04-03T01:11:21;102311.97;;;4.20;73.65
20889;BME280;10604;51.976;7.594;2023-04-03T01:13:47;102318.31;;;4.31;73.17
20889;BME280;10604;51.976;7.594;2023-04-03T01:16:14;102317.31;;;4.26;73.45
20889;BME280;10604;51.976;7.594;2023-04-03T01:18:40;102303.16;;;4.15;73.66
20889;BME280;10604;51.976;7.594;2023-04-03T01:21:28;102315.50;;;4.22;73.69
20889;BME280;10604;51.976;7.594;2023-04-03T01:24:32;102314.41;;;4.11;73.85
20889;BME280;10604;51.976;7.594;2023-04-03T01:26:59;102312.88;;;4.22;73.95
20889;BME280;10604;51.976;7.594;2023-04-03T01:29:26;102312.63;;;4.10;74.00
20889;BME280;10604;51.976;7.594;2023-04-03T01:31:54;102316.06;;;4.08;73.39
20889;BME280;10604;51.976;7.594;2023-04-03T01:34:21;102315.16;;;4.07;73.23
20889;BME280;10604;51.976;7.594;2023-04-03T01:36:47;102318.50;;;4.00;73.84
20889;BME280;10604;51.976;7.594;2023-04-03T01:39:12;102320.47;;;4.10;73.11
20889;BME280;10604;51.976;7.594;2023-04-03T01:41:38;102323.78;;;4.03;73.44
20889;BME280;10604;51.976;7.594;2023-04-03T01:44:04;102327.03;;;3.93;73.94
20889;BME280;10604;51.976;7.594;2023-04-03T01:46:30;102331.50;;;3.99;73.79
20889;BME280;10604;51.976;7.594;2023-04-03T01:48:55;102334.56;;;4.18;72.90
20889;BME280;10604;51.976;7.594;2023-04-03T01:51:21;102334.41;;;4.12;72.99
20889;BME280;10604;51.976;7.594;2023-04-03T01:53:46;102331.66;;;4.05;73.00
20889;BME280;10604;51.976;7.594;2023-04-03T01:56:11;102336.13;;;4.10;73.47
20889;BME280;10604;51.976;7.594;2023-04-03T01:58:37;102330.81;;;4.07;73.54
20889;BME280;10604;51.976;7.594;2023-04-03T02:01:02;102335.84;;;3.98;73.30
20889;BME280;10604;51.976;7.594;2023-04-03T02:03:28;102334.97;;;3.98;73.52
20889;BME280;10604;51.976;7.594;2023-04-03T02:05:53;102336.63;;;3.94;74.13
20889;BME280;10604;51.976;7.594;2023-04-03T02:08:18;102342.28;;;3.75;73.92
20889;BME280;10604;51.976;7.594;2023-04-03T02:10:47;102339.66;;;3.75;74.16
20889;BME280;10604;51.976;7.594;2023-04-03T02:13:13;102341.91;;;3.60;74.09
20889;BME280;10604;51.976;7.594;2023-04-03T02:15:38;102344.69;;;3.67;74.41
20889;BME280;10604;51.976;7.594;2023-04-03T02:18:05;102340.22;;;3.62;74.48
20889;BME280;10604;51.976;7.594;2023-04-03T02:20:30;102333.44;;;3.70;74.39
20889;BME280;10604;51.976;7.594;2023-04-03T02:22:55;102343.06;;;3.72;73.67
20889;BME280;10604;51.976;7.594;2023-04-03T02:25:21;102337.06;;;3.75;73.92
20889;BME280;10604;51.976;7.594;2023-04-03T02:27:46;102336.72;;;3.63;74.73
20889;BME280;10604;51.976;7.594;2023-04-03T02:30:12;102336.59;;;3.57;74.75
20889;BME280;10604;51.976;7.594;2023-04-03T02:32:37;102329.47;;;3.49;74.25
20889;BME280;10604;51.976;7.594;2023-04-03T02:35:03;102340.03;;;3.55;74.26
20889;BME280;10604;51.976;7.594;2023-04-03T02:37:29;102340.81;;;3.51;74.80
20889;BME280;10604;51.976;7.594;2023-04-03T02:39:55;102349.09;;;3.34;75.31
20889;BME280;10604;51.976;7.594;2023-04-03T02:42:20;102351.78;;;3.38;75.33
20889;BME280;10604;51.976;7.594;2023-04-03T02:44:46;102354.84;;;3.22;75.61
20889;BME280;10604;51.976;7.594;2023-04-03T02:47:11;102346.28;;;3.28;75.74
20889;BME280;10604;51.976;7.594;2023-04-03T02:49:37;102356.50;;;3.20;75.77
20889;BME280;10604;51.976;7.594;2023-04-03T02:52:02;102353.97;;;3.22;75.95
20889;BME280;10604;51.976;7.594;2023-04-03T02:54:27;102358.22;;;3.18;75.15
20889;BME280;10604;51.976;7.594;2023-04-03T02:56:55;102349.88;;;3.31;75.35
20889;BME280;10604;51.976;7.594;2023-04-03T02:59:20;102354.84;;;3.22;75.68
20889;BME280;10604;51.976;7.594;2023-04-03T03:01:46;102353.06;;;3.21;75.08
20889;BME280;10604;51.976;7.594;2023-04-03T03:04:11;102354.59;;;3.13;75.31
20889;BME280;10604;51.976;7.594;2023-04-03T03:06:37;102350.19;;;3.10;75.77
20889;BME280;10604;51.976;7.594;2023-04-03T03:09:02;102338.63;;;3.01;75.92
20889;BME280;10604;51.976;7.594;2023-04-03T03:11:29;102349.06;;;3.01;76.03
20889;BME280;10604;51.976;7.594;2023-04-03T03:13:55;102345.53;;;2.99;76.06
20889;BME280;10604;51.976;7.594;2023-04-03T03:16:20;102342.34;;;3.09;76.10
20889;BME280;10604;51.976;7.594;2023-04-03T03:18:46;102337.97;;;3.08;75.70
20889;BME280;10604;51.976;7.594;2023-04-03T03:21:11;102347.28;;;3.00;75.58
20889;BME280;10604;51.976;7.594;2023-04-03T03:23:37;102344.41;;;2.89;75.74
20889;BME280;10604;51.976;7.594;2023-04-03T03:26:05;102343.31;;;2.81;76.15
20889;BME280;10604;51.976;7.594;2023-04-03T03:28:31;102355.28;;;2.74;76.95
20889;BME280;10604;51.976;7.594;2023-04-03T03:30:57;102356.97;;;2.72;76.31
20889;BME280;10604;51.976;7.594;2023-04-03T03:33:23;102351.91;;;2.79;76.78
20889;BME280;10604;51.976;7.594;2023-04-03T03:35:48;102348.56;;;2.83;76.29
20889;BME280;10604;51.976;7.594;2023-04-03T03:38:14;102350.41;;;2.87;76.76
20889;BME280;10604;51.976;7.594;2023-04-03T03:40:39;102346.94;;;2.86;76.35
20889;BME280;10604;51.976;7.594;2023-04-03T03:43:05;102358.22;;;2.87;76.38
20889;BME280;10604;51.976;7.594;2023-04-03T03:45:30;102357.28;;;2.85;76.05
20889;BME280;10604;51.976;7.594;2023-04-03T03:47:56;102355.97;;;2.67;76.44
20889;BME280;10604;51.976;7.594;2023-04-03T03:50:21;102358.28;;;2.58;77.03
20889;BME280;10604;51.976;7.594;2023-04-03T03:52:47;102359.28;;;2.63;77.03
20889;BME280;10604;51.976;7.594;2023-04-03T03:55:12;102356.31;;;2.50;77.23
20889;BME280;10604;51.976;7.594;2023-04-03T03:57:38;102353.94;;;2.29;77.55
20889;BME280;10604;51.976;7.594;2023-04-03T04:00:04;102363.66;;;2.34;77.73
20889;BME280;10604;51.976;7.594;2023-04-03T04:02:30;102366.06;;;2.27;78.15
20889;BME280;10604;51.976;7.594;2023-04-03T04:04:55;102360.88;;;2.28;78.10
20889;BME280;10604;51.976;7.594;2023-04-03T04:07:21;102363.91;;;2.14;78.66
20889;BME280;10604;51.976;7.594;2023-04-03T04:09:46;102364.75;;;2.13;78.64
20889;BME280;10604;51.976;7.594;2023-04-03T04:12:11;102368.22;;;2.13;78.71
20889;BME280;10604;51.976;7.594;2023-04-03T04:14:37;102362.94;;;2.10;78.80
20889;BME280;10604;51.976;7.594;2023-04-03T04:17:02;102368.09;;;2.09;78.92
20889;BME280;10604;51.976;7.594;2023-04-03T04:19:28;102369.03;;;2.11;78.79
20889;BME280;10604;51.976;7.594;2023-04-03T04:21:53;102370.88;;;2.15;78.17
20889;BME280;10604;51.976;7.594;2023-04-03T04:24:19;102370.88;;;2.15;78.42
20889;BME280;10604;51.976;7.594;2023-04-03T04:26:45;102370.97;;;2.18;78.24
20889;BME280;10604;51.976;7.594;2023-04-03T04:29:10;102366.88;;;1.98;78.30
20889;BME280;10604;51.976;7.594;2023-04-03T04:31:36;102373.16;;;2.04;78.83
20889;BME280;10604;51.976;7.594;2023-04-03T04:34:01;102374.03;;;2.05;78.99
20889;BME280;10604;51.976;7.594;2023-04-03T04:36:27;102374.13;;;2.08;78.19
20889;BME280;10604;51.976;7.594;2023-04-03T04:38:52;102377.78;;;2.14;78.17
20889;BME280;10604;51.976;7.594;2023-04-03T04:41:20;102377.66;;;2.10;78.84
20889;BME280;10604;51.976;7.594;2023-04-03T04:43:50;102384.53;;;2.08;78.25
20889;BME280;10604;51.976;7.594;2023-04-03T04:46:16;102390.38;;;2.01;79.02
20889;BME280;10604;51.976;7.594;2023-04-03T04:48:42;102391.19;;;2.00;78.66
20889;BME280;10604;51.976;7.594;2023-04-03T04:51:08;102395.69;;;2.04;78.26
20889;BME280;10604;51.976;7.594;2023-04-03T04:53:33;102393.56;;;2.19;78.40
20889;BME280;10604;51.976;7.594;2023-04-03T04:55:59;102389.84;;;2.11;78.16
20889;BME280;10604;51.976;7.594;2023-04-03T04:58:24;102398.66;;;2.16;77.52
20889;BME280;10604;51.976;7.594;2023-04-03T05:00:58;102401.03;;;2.08;77.28
20889;BME280;10604;51.976;7.594;2023-04-03T05:03:23;102400.13;;;2.08;78.03
20889;BME280;10604;51.976;7.594;2023-04-03T05:05:49;102410.34;;;2.02;77.63
20889;BME280;10604;51.976;7.594;2023-04-03T05:08:14;102410.28;;;1.99;77.53
20889;BME280;10604;51.976;7.594;2023-04-03T05:10:40;102412.25;;;2.06;78.11
20889;BME280;10604;51.976;7.594;2023-04-03T05:13:06;102417.22;;;2.00;78.28
20889;BME280;10604;51.976;7.594;2023-04-03T05:15:31;102416.50;;;2.04;77.90
20889;BME280;10604;51.976;7.594;2023-04-03T05:17:57;102417.84;;;1.92;78.25
20889;BME280;10604;51.976;7.594;2023-04-03T05:20:22;102422.41;;;2.00;78.27
20889;BME280;10604;51.976;7.594;2023-04-03T05:22:48;102421.06;;;2.11;77.85
20889;BME280;10604;51.976;7.594;2023-04-03T05:25:13;102419.00;;;2.01;78.37
20889;BME280;10604;51.976;7.594;2023-04-03T05:27:39;102423.56;;;2.08;78.42
20889;BME280;10604;51.976;7.594;2023-04-03T05:30:05;102426.09;;;2.05;78.56
20889;BME280;10604;51.976;7.594;2023-04-03T05:32:30;102426.16;;;2.08;78.72
20889;BME280;10604;51.976;7.594;2023-04-03T05:34:56;102434.34;;;1.93;78.38
20889;BME280;10604;51.976;7.594;2023-04-03T05:37:21;102441.38;;;1.95;78.14
20889;BME280;10604;51.976;7.594;2023-04-03T05:39:46;102438.16;;;2.03;78.34
20889;BME280;10604;51.976;7.594;2023-04-03T05:42:12;102449.19;;;1.95;78.37
20889;BME280;10604;51.976;7.594;2023-04-03T05:44:39;102447.53;;;1.98;78.83
20889;BME280;10604;51.976;7.594;2023-04-03T05:47:04;102448.25;;;1.93;79.33
20889;BME280;10604;51.976;7.594;2023-04-03T05:49:30;102460.41;;;1.94;78.51
20889;BME280;10604;51.976;7.594;2023-04-03T05:51:55;102462.59;;;2.08;79.14
20889;BME280;10604;51.976;7.594;2023-04-03T05:54:29;102458.06;;;2.29;78.26
20889;BME280;10604;51.976;7.594;2023-04-03T05:56:54;102454.75;;;2.33;77.38
20889;BME280;10604;51.976;7.594;2023-04-03T05:59:20;102457.28;;;2.31;77.20
20889;BME280;10604;51.976;7.594;2023-04-03T06:01:46;102460.44;;;2.48;76.47
20889;BME280;10604;51.976;7.594;2023-04-03T06:04:12;102455.63;;;2.33;77.35
20889;BME280;10604;51.976;7.594;2023-04-03T06:06:56;102458.75;;;2.23;77.28
20889;BME280;10604;51.976;7.594;2023-04-03T06:09:27;102457.41;;;2.36;76.97
20889;BME280;10604;51.976;7.594;2023-04-03T06:11:54;102456.88;;;2.46;76.59
20889;BME280;10604;51.976;7.594;2023-04-03T06:14:19;102466.34;;;2.44;77.00
20889;BME280;10604;51.976;7.594;2023-04-03T06:16:44;102456.13;;;2.50;76.53
20889;BME280;10604;51.976;7.594;2023-04-03T06:19:11;102457.72;;;2.45;77.31
20889;BME280;10604;51.976;7.594;2023-04-03T06:21:37;102467.59;;;2.55;77.16
20889;BME280;10604;51.976;7.594;2023-04-03T06:24:04;102467.84;;;2.64;76.33
20889;BME280;10604;51.976;7.594;2023-04-03T06:26:29;102474.75;;;2.62;75.73
20889;BME280;10604;51.976;7.594;2023-04-03T06:28:55;102469.72;;;2.68;75.76
20889;BME280;10604;51.976;7.594;2023-04-03T06:31:21;102474.94;;;2.68;75.70
20889;BME280;10604;51.976;7.594;2023-04-03T06:33:47;102475.91;;;2.72;76.42
20889;BME280;10604;51.976;7.594;2023-04-03T06:36:12;102479.78;;;2.86;75.55
20889;BME280;10604;51.976;7.594;2023-04-03T06:38:38;102473.03;;;2.93;75.08
20889;BME280;10604;51.976;7.594;2023-04-03T06:41:04;102481.50;;;2.84;75.38
20889;BME280;10604;51.976;7.594;2023-04-03T06:43:29;102484.22;;;2.89;75.99
20889;BME280;10604;51.976;7.594;2023-04-03T06:45:56;102487.50;;;3.13;74.35
20889;BME280;10604;51.976;7.594;2023-04-03T06:48:22;102492.16;;;3.23;74.09
20889;BME280;10604;51.976;7.594;2023-04-03T06:50:47;102498.88;;;3.15;73.73
20889;BME280;10604;51.976;7.594;2023-04-03T06:53:12;102500.16;;;3.29;73.38
20889;BME280;10604;51.976;7.594;2023-04-03T06:55:38;102499.53;;;3.38;73.57
20889;BME280;10604;51.976;7.594;2023-04-03T06:58:04;102500.81;;;3.22;73.61
20889;BME280;10604;51.976;7.594;2023-04-03T07:00:30;102501.50;;;3.15;72.76
20889;BME280;10604;51.976;7.594;2023-04-03T07:02:56;102506.13;;;3.25;73.96
20889;BME280;10604;51.976;7.594;2023-04-03T07:05:22;102512.66;;;3.41;73.65
20889;BME280;10604;51.976;7.594;2023-04-03T07:07:48;102512.63;;;3.39;72.57
20889;BME280;10604;51.976;7.594;2023-04-03T07:10:14;102519.16;;;3.57;72.79
20889;BME280;10604;51.976;7.594;2023-04-03T07:12:40;102514.22;;;3.66;70.96
20889;BME280;10604;51.976;7.594;2023-04-03T07:15:06;102518.38;;;3.59;70.90
20889;BME280;10604;51.976;7.594;2023-04-03T07:17:32;102513.63;;;3.44;71.41
20889;BME280;10604;51.976;7.594;2023-04-03T07:19:58;102514.38;;;3.72;70.45
20889;BME280;10604;51.976;7.594;2023-04-03T07:22:23;102522.50;;;3.84;70.36
20889;BME280;10604;51.976;7.594;2023-04-03T07:24:48;102519.22;;;3.89;69.74
20889;BME280;10604;51.976;7.594;2023-04-03T07:27:14;102528.44;;;4.10;68.81
20889;BME280;10604;51.976;7.594;2023-04-03T07:29:40;102521.81;;;4.24;68.49
20889;BME280;10604;51.976;7.594;2023-04-03T07:32:06;102536.31;;;4.11;69.64
20889;BME280;10604;51.976;7.594;2023-04-03T07:34:32;102536.50;;;4.20;68.89
20889;BME280;10604;51.976;7.594;2023-04-03T07:36:58;102535.28;;;4.41;67.31
20889;BME280;10604;51.976;7.594;2023-04-03T07:39:23;102534.94;;;4.63;67.01
20889;BME280;10604;51.976;7.594;2023-04-03T07:41:49;102539.53;;;4.73;65.41
20889;BME280;10604;51.976;7.594;2023-04-03T07:44:14;102538.78;;;4.79;63.79
20889;BME280;10604;51.976;7.594;2023-04-03T07:46:40;102524.00;;;4.79;64.57
20889;BME280;10604;51.976;7.594;2023-04-03T07:49:06;102542.44;;;4.85;65.02
20889;BME280;10604;51.976;7.594;2023-04-03T07:51:32;102540.22;;;5.03;64.57
20889;BME280;10604;51.976;7.594;2023-04-03T07:53:57;102538.19;;;5.31;61.65
20889;BME280;10604;51.976;7.594;2023-04-03T07:56:23;102546.38;;;5.46;62.19
20889;BME280;10604;51.976;7.594;2023-04-03T07:58:50;102552.03;;;5.25;62.61
20889;BME280;10604;51.976;7.594;2023-04-03T08:01:15;102546.38;;;5.46;61.21
20889;BME280;10604;51.976;7.594;2023-04-03T08:03:41;102549.44;;;5.70;59.48
20889;BME280;10604;51.976;7.594;2023-04-03T08:06:08;102553.19;;;5.84;58.10
20889;BME280;10604;51.976;7.594;2023-04-03T08:08:34;102554.22;;;5.89;59.66
20889;BME280;10604;51.976;7.594;2023-04-03T08:11:00;102550.22;;;6.10;57.93
20889;BME280;10604;51.976;7.594;2023-04-03T08:13:28;102549.78;;;6.35;58.19
20889;BME280;10604;51.976;7.594;2023-04-03T08:15:53;102558.56;;;6.37;52.78
20889;BME280;10604;51.976;7.594;2023-04-03T08:18:18;102551.53;;;6.36;52.47
20889;BME280;10604;51.976;7.594;2023-04-03T08:20:47;102547.16;;;6.35;53.02
20889;BME280;10604;51.976;7.594;2023-04-03T08:23:12;102546.13;;;6.27;52.91
20889;BME280;10604;51.976;7.594;2023-04-03T08:25:40;102552.53;;;6.43;52.93
20889;BME280;10604;51.976;7.594;2023-04-03T08:28:07;102552.81;;;6.59;53.37
20889;BME280;10604;51.976;7.594;2023-04-03T08:30:33;102557.41;;;6.76;51.56
20889;BME280;10604;51.976;7.594;2023-04-03T08:33:01;102555.66;;;6.75;52.94
20889;BME280;10604;51.976;7.594;2023-04-03T08:35:27;102554.00;;;6.83;52.65
20889;BME280;10604;51.976;7.594;2023-04-03T08:37:52;102548.66;;;6.74;51.81
20889;BME280;10604;51.976;7.594;2023-04-03T08:40:17;102542.03;;;7.00;51.98
20889;BME280;10604;51.976;7.594;2023-04-03T08:45:48;102539.81;;;7.30;48.45
20889;BME280;10604;51.976;7.594;2023-04-03T08:48:19;102544.31;;;7.40;48.35
20889;BME280;10604;51.976;7.594;2023-04-03T08:50:49;102539.06;;;7.40;46.44
20889;BME280;10604;51.976;7.594;2023-04-03T08:53:19;102547.69;;;7.30;47.90
20889;BME280;10604;51.976;7.594;2023-04-03T08:55:48;102547.81;;;7.41;47.52
20889;BME280;10604;51.976;7.594;2023-04-03T08:58:23;102549.81;;;7.62;48.50
20889;BME280;10604;51.976;7.594;2023-04-03T09:01:17;102544.19;;;8.08;46.61
20889;BME280;10604;51.976;7.594;2023-04-03T09:03:43;102546.75;;;8.02;45.85
20889;BME280;10604;51.976;7.594;2023-04-03T09:06:28;102549.75;;;8.42;43.97
20889;BME280;10604;51.976;7.594;2023-04-03T09:09:13;102542.16;;;8.78;43.49
20889;BME280;10604;51.976;7.594;2023-04-03T09:11:51;102543.19;;;9.01;42.82
20889;BME280;10604;51.976;7.594;2023-04-03T09:14:53;102549.25;;;8.96;44.20
20889;BME280;10604;51.976;7.594;2023-04-03T09:20:36;102545.16;;;9.54;42.59
20889;BME280;10604;51.976;7.594;2023-04-03T09:23:34;102547.09;;;10.19;40.43
20889;BME280;10604;51.976;7.594;2023-04-03T09:26:05;102546.19;;;10.59;38.74
20889;BME280;10604;51.976;7.594;2023-04-03T09:28:36;102547.97;;;10.42;39.68
20889;BME280;10604;51.976;7.594;2023-04-03T09:31:16;102544.44;;;10.77;36.99
20889;BME280;10604;51.976;7.594;2023-04-03T09:33:43;102551.50;;;10.44;37.70
20889;BME280;10604;51.976;7.594;2023-04-03T09:36:10;102562.06;;;10.29;37.53
20889;BME280;10604;51.976;7.594;2023-04-03T09:38:36;102551.44;;;10.81;38.41
20889;BME280;10604;51.976;7.594;2023-04-03T09:43:35;102551.19;;;11.63;36.79
20889;BME280;10604;51.976;7.594;2023-04-03T09:46:39;102542.53;;;11.24;36.19
20889;BME280;10604;51.976;7.594;2023-04-03T09:49:05;102552.91;;;11.67;36.29
20889;BME280;10604;51.976;7.594;2023-04-03T09:51:31;102562.50;;;11.88;37.93
20889;BME280;10604;51.976;7.594;2023-04-03T09:53:57;102537.78;;;11.99;35.71
20889;BME280;10604;51.976;7.594;2023-04-03T09:56:29;102536.84;;;12.06;35.49
20889;BME280;10604;51.976;7.594;2023-04-03T10:04:15;102516.91;;;12.65;34.25
20889;BME280;10604;51.976;7.594;2023-04-03T10:06:46;102523.88;;;12.75;34.93
20889;BME280;10604;51.976;7.594;2023-04-03T10:09:21;102527.59;;;13.39;34.30
20889;BME280;10604;51.976;7.594;2023-04-03T10:12:05;102528.16;;;12.90;33.08
20889;BME280;10604;51.976;7.594;2023-04-03T10:14:37;102529.69;;;13.11;34.57
20889;BME280;10604;51.976;7.594;2023-04-03T10:19:53;102513.94;;;13.70;33.08
20889;BME280;10604;51.976;7.594;2023-04-03T10:22:46;102514.91;;;12.91;32.37
20889;BME280;10604;51.976;7.594;2023-04-03T10:28:14;102523.69;;;12.93;33.25
20889;BME280;10604;51.976;7.594;2023-04-03T10:34:04;102525.41;;;13.71;33.58
20889;BME280;10604;51.976;7.594;2023-04-03T10:37:05;102513.22;;;14.15;33.52
20889;BME280;10604;51.976;7.594;2023-04-03T10:50:36;102504.72;;;13.35;33.82
20889;BME280;10604;51.976;7.594;2023-04-03T10:55:36;102514.28;;;14.04;33.26
20889;BME280;10604;51.976;7.594;2023-04-03T10:58:03;102528.19;;;13.63;32.11
20889;BME280;10604;51.976;7.594;2023-04-03T11:00:39;102500.81;;;14.18;31.60
20889;BME280;10604;51.976;7.594;2023-04-03T11:03:16;102497.25;;;14.19;34.18
20889;BME280;10604;51.976;7.594;2023-04-03T11:05:50;102503.00;;;13.92;32.26
20889;BME280;10604;51.976;7.594;2023-04-03T11:10:45;102490.41;;;14.06;32.73
20889;BME280;10604;51.976;7.594;2023-04-03T11:13:19;102486.88;;;14.04;32.51
20889;BME280;10604;51.976;7.594;2023-04-03T11:15:48;102493.72;;;12.90;33.24
20889;BME280;10604;51.976;7.594;2023-04-03T11:18:22;102492.53;;;13.20;33.52
20889;BME280;10604;51.976;7.594;2023-04-03T11:21:16;102480.69;;;13.45;34.54
20889;BME280;10604;51.976;7.594;2023-04-03T11:23:47;102468.53;;;14.42;33.73
20889;BME280;10604;51.976;7.594;2023-04-03T11:26:18;102470.09;;;14.02;33.06
20889;BME280;10604;51.976;7.594;2023-04-03T11:28:44;102480.56;;;13.54;33.45
20889;BME280;10604;51.976;7.594;2023-04-03T11:34:17;102483.31;;;13.47;33.84
20889;BME280;10604;51.976;7.594;2023-04-03T11:36:53;102480.78;;;13.39;33.00
20889;BME280;10604;51.976;7.594;2023-04-03T11:39:31;102482.72;;;13.28;32.66
20889;BME280;10604;51.976;7.594;2023-04-03T11:44:43;102472.63;;;14.11;34.07
20889;BME280;10604;51.976;7.594;2023-04-03T11:47:10;102468.28;;;13.47;32.31
20889;BME280;10604;51.976;7.594;2023-04-03T11:50:01;102464.28;;;13.79;33.26
20889;BME280;10604;51.976;7.594;2023-04-03T11:58:16;102453.31;;;14.54;32.97
20889;BME280;10604;51.976;7.594;2023-04-03T12:13:42;102445.78;;;13.10;33.18
20889;BME280;10604;51.976;7.594;2023-04-03T12:16:20;102438.66;;;13.18;34.52
20889;BME280;10604;51.976;7.594;2023-04-03T12:21:16;102429.91;;;12.33;36.09
20889;BME280;10604;51.976;7.594;2023-04-03T12:26:47;102433.38;;;13.18;36.83
20889;BME280;10604;51.976;7.594;2023-04-03T12:40:53;102414.63;;;14.39;34.58
20889;BME280;10604;51.976;7.594;2023-04-03T12:43:54;102416.41;;;13.88;33.08
20889;BME280;10604;51.976;7.594;2023-04-03T12:46:32;102407.44;;;14.44;34.08
20889;BME280;10604;51.976;7.594;2023-04-03T12:48:59;102398.81;;;15.19;32.83
20889;BME280;10604;51.976;7.594;2023-04-03T12:51:37;102384.16;;;14.12;33.57
20889;BME280;10604;51.976;7.594;2023-04-03T12:54:17;102391.91;;;14.21;33.54
20889;BME280;10604;51.976;7.594;2023-04-03T12:56:44;102403.38;;;14.23;33.87
20889;BME280;10604;51.976;7.594;2023-04-03T12:59:25;102394.19;;;13.93;35.35
20889;BME280;10604;51.976;7.594;2023-04-03T13:01:59;102392.22;;;14.54;34.71
20889;BME280;10604;51.976;7.594;2023-04-03T13:04:26;102382.63;;;13.99;34.55
20889;BME280;10604;51.976;7.594;2023-04-03T13:06:52;102383.03;;;13.75;33.39
20889;BME280;10604;51.976;7.594;2023-04-03T13:09:26;102381.78;;;14.44;33.55
20889;BME280;10604;51.976;7.594;2023-04-03T13:11:58;102387.56;;;14.65;33.34
20889;BME280;10604;51.976;7.594;2023-04-03T13:14:27;102385.59;;;14.28;32.45
20889;BME280;10604;51.976;7.594;2023-04-03T13:17:04;102391.03;;;15.11;33.30
20889;BME280;10604;51.976;7.594;2023-04-03T13:19:31;102377.47;;;15.62;31.64
20889;BME280;10604;51.976;7.594;2023-04-03T13:22:02;102377.94;;;16.12;31.33
20889;BME280;10604;51.976;7.594;2023-04-03T13:24:32;102374.50;;;16.71;30.93
20889;BME280;10604;51.976;7.594;2023-04-03T13:26:58;102380.41;;;17.12;29.46
20889;BME280;10604;51.976;7.594;2023-04-03T13:29:30;102382.00;;;16.26;30.47
20889;BME280;10604;51.976;7.594;2023-04-03T13:31:57;102366.41;;;17.33;30.86
20889;BME280;10604;51.976;7.594;2023-04-03T13:34:25;102384.53;;;16.31;32.61
20889;BME280;10604;51.976;7.594;2023-04-03T13:41:49;102378.63;;;13.17;36.06
20889;BME280;10604;51.976;7.594;2023-04-03T13:46:48;102363.34;;;13.36;36.00
20889;BME280;10604;51.976;7.594;2023-04-03T13:49:27;102380.00;;;14.45;33.98
20889;BME280;10604;51.976;7.594;2023-04-03T13:51:54;102369.41;;;14.43;33.99
20889;BME280;10604;51.976;7.594;2023-04-03T13:54:23;102371.69;;;14.14;34.59
20889;BME280;10604;51.976;7.594;2023-04-03T13:56:56;102360.38;;;14.06;35.15
20889;BME280;10604;51.976;7.594;2023-04-03T13:59:30;102354.19;;;14.53;35.60
20889;BME280;10604;51.976;7.594;2023-04-03T14:04:27;102346.81;;;14.67;32.99
20889;BME280;10604;51.976;7.594;2023-04-03T14:06:53;102333.31;;;14.33;33.13
20889;BME280;10604;51.976;7.594;2023-04-03T14:09:20;102340.56;;;14.70;32.15
20889;BME280;10604;51.976;7.594;2023-04-03T14:11:48;102339.31;;;14.44;32.43
20889;BME280;10604;51.976;7.594;2023-04-03T14:14:23;102335.75;;;14.85;32.55
20889;BME280;10604;51.976;7.594;2023-04-03T14:16:54;102334.16;;;14.78;33.20
20889;BME280;10604;51.976;7.594;2023-04-03T14:19:28;102327.44;;;14.16;33.34
20889;BME280;10604;51.976;7.594;2023-04-03T14:21:55;102311.25;;;13.33;33.50
20889;BME280;10604;51.976;7.594;2023-04-03T14:24:22;102329.41;;;12.30;35.81
20889;BME280;10604;51.976;7.594;2023-04-03T14:26:49;102336.19;;;12.54;35.16
20889;BME280;10604;51.976;7.594;2023-04-03T14:29:18;102329.16;;;13.16;34.85
20889;BME280;10604;51.976;7.594;2023-04-03T14:31:48;102313.91;;;13.84;34.81
20889;BME280;10604;51.976;7.594;2023-04-03T14:34:15;102307.34;;;13.55;33.03